Time;durP1;ratioP1;P1;durP2;ratioP2;P2;SDS_P1;SDS_P2;PMS_P1;PMS_P2;Temp;Humidity;BMP_temperature;BMP_pressure;BME280_temperature;BME280_humidity;BME280_pressure;Samples;Min_cycle;Max_cycle;Signal;HPM_P1;HPM_P2
2021/01/27 00:03:49;;;;;;;40.83;22.77;;;1.80;99.90;;;;;;12483484;28;20132;-42
2021/01/27 00:09:50;;;;;;;42.13;23.23;;;1.70;99.90;;;;;;12489296;28;20135;-42
2021/01/27 00:15:51;;;;;;;38.95;24.60;;;1.70;99.90;;;;;;12509765;28;20045;-42
2021/01/27 00:21:53;;;;;;;47.63;26.27;;;1.70;99.90;;;;;;12499767;28;20501;-42
2021/01/27 00:27:54;;;;;;;40.58;25.40;;;1.60;99.90;;;;;;12507941;28;20518;-42
2021/01/27 00:33:56;;;;;;;39.72;24.63;;;1.50;99.90;;;;;;12505129;28;20465;-42
2021/01/27 00:39:57;;;;;;;44.10;27.10;;;1.50;99.90;;;;;;12495418;28;20099;-42
2021/01/27 00:45:58;;;;;;;43.17;25.30;;;1.50;99.90;;;;;;12494487;28;21356;-42
2021/01/27 00:52:00;;;;;;;49.67;28.73;;;1.40;99.90;;;;;;12494086;28;20140;-42
2021/01/27 00:58:02;;;;;;;49.88;27.15;;;1.50;99.90;;;;;;12518475;28;20394;-42
2021/01/27 01:04:04;;;;;;;56.45;30.73;;;1.50;99.90;;;;;;12487645;28;20057;-42
2021/01/27 01:10:07;;;;;;;52.78;29.50;;;1.60;99.90;;;;;;12489462;28;20444;-42
2021/01/27 01:16:08;;;;;;;50.70;27.25;;;1.70;99.90;;;;;;12507135;28;20128;-42
2021/01/27 01:22:09;;;;;;;51.88;28.05;;;1.70;99.90;;;;;;12501727;28;20053;-42
2021/01/27 01:28:11;;;;;;;46.75;26.85;;;1.60;99.90;;;;;;12492292;28;20070;-42
2021/01/27 01:34:12;;;;;;;46.05;25.42;;;1.60;99.90;;;;;;12480811;28;20103;-42
2021/01/27 01:40:18;;;;;;;46.30;25.33;;;1.60;99.90;;;;;;12481871;28;20056;-42
2021/01/27 01:46:24;;;;;;;42.55;23.95;;;1.60;99.90;;;;;;12491061;28;20076;-42
2021/01/27 01:52:26;;;;;;;40.42;21.67;;;1.70;99.90;;;;;;12490020;28;20045;-42
2021/01/27 01:58:27;;;;;;;41.42;21.80;;;1.70;99.90;;;;;;12485892;28;20204;-42
2021/01/27 02:05:12;;;;;;;42.75;21.80;;;1.70;99.90;;;;;;12480641;28;20542;-42
2021/01/27 02:11:20;;;;;;;37.90;21.45;;;1.80;99.90;;;;;;12494616;28;20448;-42
2021/01/27 02:17:33;;;;;;;38.35;20.30;;;1.80;99.90;;;;;;12488925;28;20045;-42
2021/01/27 02:23:59;;;;;;;37.65;20.10;;;1.80;99.90;;;;;;12504517;28;20132;-42
2021/01/27 02:30:09;;;;;;;;;;;1.80;99.90;;;;;;12495437;28;20092;-42
2021/01/27 02:36:13;;;;;;;30.15;17.85;;;1.80;99.90;;;;;;12499775;28;19921;-41
2021/01/27 02:42:23;;;;;;;28.08;16.00;;;1.90;99.90;;;;;;12499779;28;20048;-42
2021/01/27 02:48:40;;;;;;;28.52;16.63;;;1.80;99.90;;;;;;12498748;28;20053;-42
2021/01/27 02:54:50;;;;;;;27.23;16.00;;;1.80;99.90;;;;;;12507168;28;20082;-43
2021/01/27 03:01:01;;;;;;;28.73;16.10;;;1.80;99.90;;;;;;12482076;28;20041;-42
2021/01/27 03:07:03;;;;;;;27.50;15.13;;;1.70;99.90;;;;;;12482122;28;20628;-42
2021/01/27 03:13:05;;;;;;;25.00;15.23;;;1.80;99.90;;;;;;12489080;28;20048;-42
2021/01/27 03:19:12;;;;;;;26.08;14.02;;;1.80;99.90;;;;;;12481241;28;20139;-42
2021/01/27 03:25:22;;;;;;;25.65;14.88;;;1.70;99.90;;;;;;12502933;28;20136;-42
2021/01/27 03:31:24;;;;;;;27.67;14.95;;;1.70;99.90;;;;;;12494124;28;20140;-42
2021/01/27 03:37:51;;;;;;;25.27;14.57;;;1.70;99.90;;;;;;12470843;28;20742;-42
2021/01/27 03:44:06;;;;;;;22.85;12.98;;;1.70;99.90;;;;;;12475656;28;20083;-42
2021/01/27 03:50:15;;;;;;;24.50;13.40;;;1.70;99.90;;;;;;12480594;28;20717;-42
2021/01/27 03:56:21;;;;;;;26.08;13.98;;;1.70;99.90;;;;;;12472586;28;20110;-42
2021/01/27 04:02:23;;;;;;;23.48;12.95;;;1.70;99.90;;;;;;12468875;28;20061;-42
2021/01/27 04:08:25;;;;;;;20.92;12.07;;;1.60;99.90;;;;;;12486092;28;20048;-42
2021/01/27 04:14:26;;;;;;;19.92;11.55;;;1.60;99.90;;;;;;12448801;28;20076;-42
2021/01/27 04:20:28;;;;;;;17.40;11.15;;;1.60;99.90;;;;;;12442924;28;20103;-42
2021/01/27 04:26:30;;;;;;;18.67;10.65;;;1.60;99.90;;;;;;12442204;28;21831;-42
2021/01/27 04:32:31;;;;;;;20.73;10.80;;;1.60;99.90;;;;;;12437689;28;20049;-42
2021/01/27 04:38:33;;;;;;;20.52;11.10;;;1.50;99.90;;;;;;12449923;28;20065;-42
2021/01/27 04:44:34;;;;;;;18.83;10.52;;;1.50;99.90;;;;;;12448199;28;20042;-42
2021/01/27 04:50:45;;;;;;;17.60;10.93;;;1.60;99.90;;;;;;12449897;28;20076;-42
2021/01/27 04:57:12;;;;;;;18.10;11.55;;;1.50;99.90;;;;;;12438072;28;20140;-42
2021/01/27 05:03:33;;;;;;;21.55;10.93;;;1.40;99.90;;;;;;12426430;28;20049;-42
2021/01/27 05:09:44;;;;;;;18.45;10.02;;;1.40;99.90;;;;;;12485664;28;20053;-42
2021/01/27 05:15:48;;;;;;;15.68;9.00;;;1.40;99.90;;;;;;12476140;28;20564;-42
2021/01/27 05:21:52;;;;;;;14.90;9.02;;;1.40;99.90;;;;;;12486325;28;20108;-41
2021/01/27 05:27:58;;;;;;;12.77;8.03;;;1.50;99.90;;;;;;12483010;28;20152;-42
2021/01/27 05:33:59;;;;;;;17.60;7.65;;;1.40;99.90;;;;;;12500323;28;20148;-42
2021/01/27 05:40:17;;;;;;;12.75;6.45;;;1.40;99.90;;;;;;12499137;28;20109;-42
2021/01/27 05:46:28;;;;;;;12.52;6.45;;;1.30;99.90;;;;;;12500346;28;20135;-42
2021/01/27 05:52:29;;;;;;;11.75;6.75;;;1.30;99.90;;;;;;12500440;28;20090;-42
2021/01/27 05:58:37;;;;;;;12.35;6.60;;;1.40;99.90;;;;;;12489990;28;20170;-42
2021/01/27 06:04:39;;;;;;;9.15;5.68;;;1.30;99.90;;;;;;12491747;28;20412;-42
2021/01/27 06:10:41;;;;;;;12.98;6.53;;;1.30;99.90;;;;;;12496439;28;20135;-42
2021/01/27 06:16:46;;;;;;;12.20;6.88;;;1.20;99.90;;;;;;12488657;28;20523;-42
2021/01/27 06:23:12;;;;;;;8.75;5.97;;;1.20;99.90;;;;;;12485123;28;20044;-42
2021/01/27 06:29:32;;;;;;;11.23;6.00;;;1.10;99.90;;;;;;12504234;28;20106;-41
2021/01/27 06:36:14;;;;;;;10.45;6.28;;;1.00;99.90;;;;;;12493326;28;20049;-42
2021/01/27 06:42:37;;;;;;;11.88;6.53;;;1.00;99.90;;;;;;12503759;28;20052;-42
2021/01/27 06:49:17;;;;;;;10.00;6.50;;;0.90;99.90;;;;;;12494472;28;20036;-42
2021/01/27 06:55:28;;;;;;;9.60;5.82;;;0.90;99.90;;;;;;12487606;28;20160;-42
2021/01/27 07:01:54;;;;;;;10.77;5.82;;;1.00;99.90;;;;;;12492795;28;20041;-41
2021/01/27 07:08:25;;;;;;;11.18;5.50;;;1.00;99.90;;;;;;12490957;28;20045;-42
2021/01/27 07:14:35;;;;;;;8.38;4.65;;;1.10;99.90;;;;;;12471670;28;20059;-41
2021/01/27 07:20:44;;;;;;;8.18;4.47;;;1.10;99.90;;;;;;12482322;28;20136;-41
2021/01/27 07:27:11;;;;;;;9.07;5.03;;;1.10;99.90;;;;;;12505452;28;20106;-42
2021/01/27 07:33:19;;;;;;;7.75;4.40;;;1.10;99.90;;;;;;12497026;28;20049;-42
2021/01/27 07:39:31;;;;;;;8.10;4.45;;;1.20;99.90;;;;;;12483889;28;20056;-41
2021/01/27 07:45:36;;;;;;;10.35;4.45;;;1.20;99.90;;;;;;12510157;28;20056;-42
2021/01/27 07:52:16;;;;;;;7.93;4.35;;;1.20;99.90;;;;;;12488256;28;20135;-41
2021/01/27 07:58:29;;;;;;;7.68;4.82;;;1.30;99.90;;;;;;12458832;28;20049;-42
2021/01/27 08:04:49;;;;;;;8.32;4.60;;;1.30;99.90;;;;;;12498611;28;20048;-41
2021/01/27 08:10:52;;;;;;;6.85;4.35;;;1.40;99.90;;;;;;12503736;28;20127;-41
2021/01/27 08:16:54;;;;;;;7.25;3.83;;;1.40;99.90;;;;;;12474538;28;20049;-41
2021/01/27 08:23:06;;;;;;;6.22;3.95;;;1.40;99.90;;;;;;12493742;28;20045;-42
2021/01/27 08:29:24;;;;;;;8.43;4.50;;;1.50;99.90;;;;;;12511404;28;20045;-41
2021/01/27 08:35:37;;;;;;;9.65;4.95;;;1.40;99.90;;;;;;12499550;28;20040;-42
2021/01/27 08:41:59;;;;;;;8.52;4.57;;;1.30;99.90;;;;;;12509560;28;20045;-42
2021/01/27 08:48:03;;;;;;;6.50;4.05;;;1.20;99.90;;;;;;12489171;28;20102;-42
2021/01/27 08:54:37;;;;;;;8.27;4.38;;;1.30;99.90;;;;;;12467482;28;20057;-42
2021/01/27 09:00:38;;;;;;;8.00;3.92;;;1.30;99.90;;;;;;12511054;28;20417;-41
2021/01/27 09:06:49;;;;;;;7.00;4.53;;;1.30;99.90;;;;;;12468205;28;20106;-41
2021/01/27 09:12:50;;;;;;;8.13;4.60;;;1.30;99.90;;;;;;12482062;28;20148;-41
2021/01/27 09:19:19;;;;;;;8.57;4.95;;;1.20;99.90;;;;;;12493746;28;20110;-42
2021/01/27 09:25:21;;;;;;;8.07;5.35;;;1.10;99.90;;;;;;12482955;28;20448;-41
2021/01/27 09:31:27;;;;;;;9.93;6.22;;;0.90;99.90;;;;;;12484868;28;20045;-41
2021/01/27 09:37:29;;;;;;;10.98;6.40;;;0.90;99.90;;;;;;12484421;28;20437;-41
2021/01/27 09:43:38;;;;;;;13.95;7.10;;;0.80;99.90;;;;;;12505330;28;20472;-41
2021/01/27 09:49:48;;;;;;;13.45;7.28;;;0.80;99.90;;;;;;12463286;28;20128;-42
2021/01/27 09:55:51;;;;;;;13.80;7.53;;;0.80;99.90;;;;;;12485136;28;20092;-41
2021/01/27 10:01:52;;;;;;;13.77;7.70;;;0.80;99.90;;;;;;12500460;28;20131;-42
2021/01/27 10:07:55;;;;;;;20.38;10.27;;;0.70;99.90;;;;;;12455764;28;20090;-41
2021/01/27 10:14:12;;;;;;;17.60;10.43;;;0.60;99.90;;;;;;12498518;28;20083;-41
2021/01/27 10:20:22;;;;;;;19.15;10.98;;;0.60;99.90;;;;;;12504412;28;20284;-42
2021/01/27 10:26:34;;;;;;;18.27;10.95;;;0.60;99.90;;;;;;12499796;28;20122;-41
2021/01/27 10:32:41;;;;;;;17.80;11.30;;;0.60;99.90;;;;;;12497669;28;20485;-41
2021/01/27 10:38:43;;;;;;;18.40;11.02;;;0.70;99.90;;;;;;12493877;28;20049;-42
2021/01/27 10:44:44;;;;;;;17.63;10.90;;;0.80;99.90;;;;;;12492943;28;20052;-42
2021/01/27 10:51:07;;;;;;;17.80;9.95;;;0.90;99.90;;;;;;12480888;28;20045;-42
2021/01/27 10:57:08;;;;;;;16.60;8.85;;;1.00;99.90;;;;;;12501167;28;20379;-42
2021/01/27 11:03:11;;;;;;;13.18;8.32;;;1.00;99.90;;;;;;12486953;28;20431;-41
2021/01/27 11:09:13;;;;;;;12.80;8.18;;;1.00;99.90;;;;;;12498455;28;20044;-41
2021/01/27 11:15:15;;;;;;;12.20;7.70;;;1.00;99.90;;;;;;12502323;28;20479;-41
2021/01/27 11:21:18;;;;;;;10.82;6.75;;;1.10;99.90;;;;;;12499486;28;20055;-41
2021/01/27 11:27:21;;;;;;;11.20;6.90;;;1.10;99.90;;;;;;12512415;28;20048;-42
2021/01/27 11:33:24;;;;;;;9.25;5.72;;;1.30;99.90;;;;;;12503546;28;20557;-41
2021/01/27 11:39:26;;;;;;;9.80;5.97;;;1.20;99.90;;;;;;12506810;28;20415;-42
2021/01/27 11:45:27;;;;;;;9.93;6.35;;;1.20;99.90;;;;;;12502787;28;20045;-42
2021/01/27 11:51:34;;;;;;;9.05;5.53;;;1.20;99.90;;;;;;12497395;28;20053;-42
2021/01/27 11:57:38;;;;;;;8.43;6.22;;;1.20;99.90;;;;;;12504761;28;20064;-42
2021/01/27 12:03:39;;;;;;;8.98;5.72;;;1.20;99.90;;;;;;12511494;28;20136;-42
2021/01/27 12:09:42;;;;;;;10.43;5.30;;;1.20;99.90;;;;;;12466877;28;20060;-42
2021/01/27 12:15:43;;;;;;;7.03;4.90;;;1.20;99.90;;;;;;12515130;28;20087;-41
2021/01/27 12:21:45;;;;;;;6.63;5.07;;;1.30;99.90;;;;;;12505852;28;20060;-41
2021/01/27 12:27:46;;;;;;;8.13;5.82;;;1.30;99.90;;;;;;12502281;28;20140;-42
2021/01/27 12:33:48;;;;;;;8.13;5.20;;;1.30;99.90;;;;;;12498707;28;20056;-42
2021/01/27 12:39:50;;;;;;;8.45;5.93;;;1.20;99.90;;;;;;12507464;28;20148;-42
2021/01/27 12:45:51;;;;;;;8.70;6.22;;;1.30;99.90;;;;;;12509003;28;20076;-41
2021/01/27 12:51:53;;;;;;;9.90;7.00;;;1.30;99.90;;;;;;12493277;28;20494;-41
2021/01/27 12:57:54;;;;;;;9.23;7.00;;;1.30;99.90;;;;;;12506157;28;20049;-41
2021/01/27 13:03:55;;;;;;;10.35;7.15;;;1.30;99.90;;;;;;12493011;28;20072;-41
2021/01/27 13:09:57;;;;;;;10.70;6.20;;;1.40;99.90;;;;;;12474948;28;20405;-41
2021/01/27 13:15:58;;;;;;;8.90;6.18;;;1.40;99.90;;;;;;12500979;28;20062;-41
2021/01/27 13:22:00;;;;;;;9.07;6.50;;;1.50;99.90;;;;;;12495978;28;20080;-41
2021/01/27 13:28:02;;;;;;;9.63;6.38;;;1.40;99.90;;;;;;12499105;28;20139;-41
2021/01/27 13:34:03;;;;;;;9.38;6.07;;;1.50;99.90;;;;;;12493975;28;20056;-42
2021/01/27 13:40:06;;;;;;;9.27;6.60;;;1.50;99.90;;;;;;12500298;28;20496;-41
2021/01/27 13:46:08;;;;;;;10.90;7.28;;;1.50;99.90;;;;;;12498840;28;20045;-42
2021/01/27 13:52:09;;;;;;;10.50;7.00;;;1.50;99.90;;;;;;12475115;28;20110;-42
2021/01/27 13:58:12;;;;;;;9.85;7.20;;;1.50;99.90;;;;;;12484010;28;20049;-42
2021/01/27 14:04:14;;;;;;;11.98;8.35;;;1.60;99.90;;;;;;12496104;28;20053;-42
2021/01/27 14:10:21;;;;;;;9.75;7.97;;;1.60;99.90;;;;;;12470545;28;20466;-42
2021/01/27 14:16:22;;;;;;;10.38;7.82;;;1.60;99.90;;;;;;12475120;28;20091;-42
2021/01/27 14:22:24;;;;;;;9.45;7.65;;;1.60;99.90;;;;;;12497588;28;20489;-42
2021/01/27 14:28:25;;;;;;;12.20;8.63;;;1.60;99.90;;;;;;12486048;28;20094;-42
2021/01/27 14:34:26;;;;;;;12.05;9.30;;;1.60;99.90;;;;;;12493880;28;20477;-42
2021/01/27 14:40:31;;;;;;;14.70;10.43;;;1.60;99.90;;;;;;12488846;28;20048;-42
2021/01/27 14:46:32;;;;;;;15.13;10.35;;;1.70;99.90;;;;;;12501496;28;20496;-42
2021/01/27 14:52:34;;;;;;;11.90;9.55;;;1.60;99.90;;;;;;12458287;28;20099;-42
2021/01/27 14:58:36;;;;;;;14.00;10.82;;;1.70;99.90;;;;;;12492066;28;20068;-42
2021/01/27 15:04:37;;;;;;;14.70;11.32;;;1.80;99.90;;;;;;12506864;28;20053;-42
2021/01/27 15:10:38;;;;;;;15.18;10.20;;;1.80;99.90;;;;;;12501728;28;20428;-42
2021/01/27 15:16:40;;;;;;;15.77;10.48;;;1.80;99.90;;;;;;12480450;28;20064;-42
2021/01/27 15:22:42;;;;;;;13.70;10.63;;;1.80;99.90;;;;;;12490552;28;20099;-42
2021/01/27 15:28:44;;;;;;;14.02;10.75;;;1.80;99.90;;;;;;12501890;28;20542;-42
2021/01/27 15:34:45;;;;;;;15.93;12.18;;;1.90;99.90;;;;;;12486164;28;20053;-41
2021/01/27 15:40:47;;;;;;;23.70;12.80;;;1.80;99.90;;;;;;12486835;28;20078;-42
2021/01/27 15:46:49;;;;;;;19.27;12.82;;;1.90;99.90;;;;;;12489922;28;20053;-41
2021/01/27 15:52:52;;;;;;;17.73;12.93;;;1.90;99.90;;;;;;12488835;28;21062;-41
2021/01/27 15:58:53;;;;;;;19.98;13.20;;;2.00;99.90;;;;;;12496700;28;20047;-42
2021/01/27 16:04:56;;;;;;;19.48;12.50;;;2.00;99.90;;;;;;12510853;28;20068;-41
2021/01/27 16:10:58;;;;;;;17.25;12.95;;;2.10;99.90;;;;;;12497010;28;20041;-42
2021/01/27 16:16:59;;;;;;;19.08;13.63;;;2.10;99.90;;;;;;12491917;28;20057;-42
2021/01/27 16:23:01;;;;;;;18.42;13.93;;;2.20;99.90;;;;;;12502996;28;20515;-42
2021/01/27 16:29:03;;;;;;;17.88;12.40;;;2.30;99.90;;;;;;12490833;28;20069;-42
2021/01/27 16:35:05;;;;;;;18.88;12.30;;;2.30;99.90;;;;;;12499024;28;20172;-42
2021/01/27 16:41:07;;;;;;;15.13;11.27;;;2.40;99.90;;;;;;12495382;28;20114;-42
2021/01/27 16:47:08;;;;;;;20.33;13.30;;;2.40;99.90;;;;;;12495554;28;20053;-42
2021/01/27 16:53:10;;;;;;;16.98;12.10;;;2.50;99.90;;;;;;12486207;28;20489;-42
2021/01/27 16:59:12;;;;;;;18.15;12.70;;;2.50;99.90;;;;;;12507608;28;20057;-42
2021/01/27 17:05:16;;;;;;;19.75;13.00;;;2.50;99.90;;;;;;12499092;28;20056;-42
2021/01/27 17:11:17;;;;;;;21.85;14.48;;;2.60;99.90;;;;;;12491552;28;20056;-42
2021/01/27 17:17:18;;;;;;;20.52;13.77;;;2.60;99.90;;;;;;12498214;28;20080;-42
2021/01/27 17:23:21;;;;;;;22.02;14.52;;;2.60;99.90;;;;;;12492998;28;20045;-42
2021/01/27 17:29:23;;;;;;;24.38;15.68;;;2.70;99.90;;;;;;12499341;28;20106;-42
2021/01/27 17:35:27;;;;;;;21.95;14.50;;;2.70;99.90;;;;;;12488596;28;20052;-42
2021/01/27 17:41:28;;;;;;;23.65;15.60;;;2.80;99.90;;;;;;12500956;28;20132;-42
2021/01/27 17:47:30;;;;;;;25.10;15.55;;;2.80;99.90;;;;;;12503697;28;20045;-42
2021/01/27 17:53:33;;;;;;;27.83;16.45;;;2.90;99.90;;;;;;12484481;28;20044;-42
2021/01/27 17:59:34;;;;;;;26.08;17.23;;;2.90;99.90;;;;;;12500155;28;20088;-42
2021/01/27 18:05:38;;;;;;;26.58;17.88;;;2.90;99.90;;;;;;12493433;28;20041;-41
2021/01/27 18:11:40;;;;;;;29.90;19.17;;;3.00;99.90;;;;;;12501547;28;20585;-42
2021/01/27 18:17:42;;;;;;;26.05;17.13;;;3.10;99.90;;;;;;12489748;28;20079;-42
2021/01/27 18:23:47;;;;;;;25.13;16.73;;;3.10;99.90;;;;;;12483675;28;20080;-42
2021/01/27 18:29:50;;;;;;;;;;;3.10;99.90;;;;;;12481484;28;20505;-42
2021/01/27 18:35:54;;;;;;;25.10;15.50;;;3.20;99.90;;;;;;12490273;28;19920;-42
2021/01/27 18:41:55;;;;;;;26.23;16.55;;;3.20;99.90;;;;;;12500091;28;20061;-42
2021/01/27 18:47:57;;;;;;;28.13;17.00;;;3.20;99.90;;;;;;12485566;28;20139;-42
2021/01/27 18:54:02;;;;;;;26.45;16.00;;;3.20;99.90;;;;;;12496638;28;20068;-42
2021/01/27 19:00:10;;;;;;;25.77;16.00;;;3.30;99.90;;;;;;12491991;28;20532;-41
2021/01/27 19:06:12;;;;;;;27.35;16.67;;;3.30;99.90;;;;;;12495154;28;20362;-42
2021/01/27 19:12:13;;;;;;;26.35;16.63;;;3.40;99.90;;;;;;12477519;28;20051;-42
2021/01/27 19:18:15;;;;;;;24.35;15.75;;;3.30;99.90;;;;;;12474228;28;20098;-42
2021/01/27 19:24:17;;;;;;;24.42;14.52;;;3.30;99.90;;;;;;12480484;28;20041;-42
2021/01/27 19:30:20;;;;;;;25.17;14.50;;;3.30;99.90;;;;;;12490328;28;20148;-42
2021/01/27 19:36:22;;;;;;;23.55;13.80;;;3.40;99.90;;;;;;12489849;28;20172;-42
2021/01/27 19:42:23;;;;;;;24.20;14.32;;;3.40;99.90;;;;;;12515816;28;20466;-42
2021/01/27 19:48:27;;;;;;;26.75;14.73;;;3.40;99.90;;;;;;12468040;28;20057;-42
2021/01/27 19:54:29;;;;;;;24.50;14.13;;;3.50;99.90;;;;;;12474432;28;20143;-42
2021/01/27 20:00:31;;;;;;;27.75;15.70;;;3.50;99.90;;;;;;12496157;28;20102;-42
2021/01/27 20:06:32;;;;;;;32.95;17.52;;;3.60;99.90;;;;;;12496958;28;20732;-42
2021/01/27 20:12:34;;;;;;;35.42;18.52;;;3.60;99.90;;;;;;12491358;28;20101;-42
2021/01/27 20:18:36;;;;;;;33.22;18.25;;;3.60;99.90;;;;;;12488162;28;20136;-42
2021/01/27 20:24:38;;;;;;;36.05;18.25;;;3.70;99.90;;;;;;12489594;28;20228;-42
2021/01/27 20:30:41;;;;;;;32.30;16.70;;;3.70;99.90;;;;;;12506992;28;20497;-42
2021/01/27 20:36:43;;;;;;;38.58;19.42;;;3.80;99.90;;;;;;12494028;28;20053;-42
2021/01/27 20:42:44;;;;;;;36.65;18.85;;;3.80;99.90;;;;;;12515297;28;20135;-42
2021/01/27 20:48:46;;;;;;;42.92;18.65;;;3.90;99.90;;;;;;12495142;28;20113;-42
2021/01/27 20:54:47;;;;;;;41.80;19.00;;;4.00;99.90;;;;;;12494964;28;20143;-42
2021/01/27 21:00:50;;;;;;;43.97;21.42;;;4.00;99.90;;;;;;12490617;28;20049;-41
2021/01/27 21:06:52;;;;;;;40.10;18.75;;;4.00;99.90;;;;;;12489515;28;20527;-42
2021/01/27 21:12:54;;;;;;;44.85;20.90;;;4.10;99.90;;;;;;12488425;28;20075;-42
2021/01/27 21:18:56;;;;;;;42.28;20.15;;;4.30;99.90;;;;;;12496355;28;20125;-42
2021/01/27 21:24:58;;;;;;;42.05;19.63;;;4.30;99.90;;;;;;12505669;28;20489;-41
2021/01/27 21:31:00;;;;;;;41.22;20.75;;;4.50;99.90;;;;;;12492672;28;20052;-41
2021/01/27 21:37:04;;;;;;;;;;;4.50;99.90;;;;;;12488272;28;20134;-42
2021/01/27 21:43:06;;;;;;;43.50;21.38;;;4.60;99.90;;;;;;12499829;28;19978;-42
2021/01/27 21:49:08;;;;;;;44.53;20.90;;;4.60;99.90;;;;;;12493370;28;20044;-42
2021/01/27 21:55:11;;;;;;;42.05;19.45;;;4.60;99.90;;;;;;12484220;28;20421;-42
2021/01/27 22:01:13;;;;;;;40.00;18.52;;;4.70;99.90;;;;;;12509321;28;20076;-42
2021/01/27 22:07:14;;;;;;;41.30;18.15;;;4.70;99.90;;;;;;12499976;28;20045;-42
2021/01/27 22:13:15;;;;;;;41.80;19.10;;;4.80;99.90;;;;;;12481829;28;20504;-42
2021/01/27 22:19:17;;;;;;;41.63;19.88;;;4.80;99.90;;;;;;12493934;28;20160;-42
2021/01/27 22:25:21;;;;;;;39.53;18.25;;;4.80;99.90;;;;;;12457805;28;20064;-42
2021/01/27 22:31:22;;;;;;;42.67;19.92;;;5.00;99.90;;;;;;12489643;28;20128;-42
2021/01/27 22:37:24;;;;;;;41.15;19.13;;;5.00;99.90;;;;;;12484533;28;20076;-42
2021/01/27 22:43:26;;;;;;;40.75;19.10;;;4.90;99.90;;;;;;12509092;28;20454;-42
2021/01/27 22:49:27;;;;;;;38.65;18.05;;;5.00;99.90;;;;;;12483854;28;20090;-41
2021/01/27 22:55:29;;;;;;;38.60;17.95;;;5.10;99.90;;;;;;12475395;28;20380;-42
2021/01/27 23:01:30;;;;;;;38.20;18.30;;;5.10;99.90;;;;;;12499641;28;20386;-41
2021/01/27 23:07:32;;;;;;;38.35;17.58;;;5.10;99.90;;;;;;12491107;28;20049;-41
2021/01/27 23:13:34;;;;;;;38.45;17.05;;;5.20;99.90;;;;;;12478160;28;20041;-42
2021/01/27 23:19:36;;;;;;;38.05;17.10;;;5.10;99.90;;;;;;12480544;28;20053;-41
2021/01/27 23:25:37;;;;;;;34.40;17.00;;;5.10;99.90;;;;;;12493602;28;20369;-42
2021/01/27 23:31:39;;;;;;;36.85;15.43;;;5.20;99.90;;;;;;12500793;28;20041;-42
2021/01/27 23:37:40;;;;;;;32.35;15.70;;;5.40;99.90;;;;;;12489663;28;20171;-42
2021/01/27 23:43:42;;;;;;;34.13;15.57;;;5.30;99.90;;;;;;12498149;28;20064;-42
2021/01/27 23:49:44;;;;;;;33.92;14.70;;;5.30;99.90;;;;;;12494445;28;20085;-41
2021/01/27 23:55:47;;;;;;;35.50;16.05;;;5.20;99.90;;;;;;12495002;28;20132;-42
